createdAt,value
2023-01-29T00:00:22.022Z,4.90
2023-01-29T00:02:49.135Z,4.93
2023-01-29T00:05:27.542Z,5.47
2023-01-29T00:07:56.334Z,5.53
2023-01-29T00:10:24.969Z,5.50
2023-01-29T00:12:51.934Z,5.37
2023-01-29T00:15:18.993Z,5.33
2023-01-29T00:17:45.678Z,4.90
2023-01-29T00:20:12.694Z,5.77
2023-01-29T00:22:39.383Z,5.50
2023-01-29T00:25:06.731Z,5.43
2023-01-29T00:27:33.468Z,5.30
2023-01-29T00:30:11.978Z,6.13
2023-01-29T00:32:40.158Z,5.90
2023-01-29T00:35:08.516Z,5.13
2023-01-29T00:37:35.733Z,5.20
2023-01-29T00:40:02.658Z,5.83
2023-01-29T00:42:47.885Z,5.23
2023-01-29T00:45:15.413Z,4.93
2023-01-29T00:47:42.078Z,4.93
2023-01-29T00:50:11.473Z,5.40
2023-01-29T00:52:40.901Z,6.03
2023-01-29T00:55:08.995Z,5.03
2023-01-29T00:57:36.701Z,4.83
2023-01-29T01:00:06.581Z,5.27
2023-01-29T01:02:52.138Z,5.97
2023-01-29T01:05:19.310Z,6.10
2023-01-29T01:07:51.313Z,5.03
2023-01-29T01:10:21.941Z,5.20
2023-01-29T01:12:58.293Z,6.70
2023-01-29T01:15:27.655Z,7.27
2023-01-29T01:17:56.721Z,7.23
2023-01-29T01:20:25.305Z,6.20
2023-01-29T01:22:53.993Z,7.30
2023-01-29T01:25:21.806Z,7.40
2023-01-29T01:27:48.562Z,7.20
2023-01-29T01:30:16.575Z,7.23
2023-01-29T01:32:43.616Z,7.57
2023-01-29T01:35:11.135Z,7.03
2023-01-29T01:37:40.894Z,7.10
2023-01-29T01:40:20.231Z,7.97
2023-01-29T01:42:52.197Z,7.00
2023-01-29T01:45:30.673Z,7.60
2023-01-29T01:48:26.515Z,8.20
2023-01-29T01:51:03.460Z,7.87
2023-01-29T01:53:44.111Z,7.80
2023-01-29T01:56:16.408Z,8.00
2023-01-29T01:58:50.441Z,7.97
2023-01-29T02:01:19.004Z,7.87
2023-01-29T02:04:09.242Z,8.63
2023-01-29T02:06:58.141Z,7.63
2023-01-29T02:09:46.705Z,8.17
2023-01-29T02:12:16.083Z,6.30
2023-01-29T02:14:44.165Z,5.20
2023-01-29T02:17:16.436Z,5.20
2023-01-29T02:19:51.703Z,5.20
2023-01-29T02:22:43.269Z,5.40
2023-01-29T02:25:44.212Z,5.47
2023-01-29T02:28:16.753Z,5.10
2023-01-29T02:31:02.033Z,5.10
2023-01-29T02:33:56.695Z,5.57
2023-01-29T02:37:09.253Z,6.27
2023-01-29T02:40:11.654Z,6.57
2023-01-29T02:42:46.427Z,5.63
2023-01-29T02:45:19.060Z,5.23
2023-01-29T02:47:58.776Z,4.90
2023-01-29T02:50:39.545Z,4.40
2023-01-29T02:53:27.245Z,4.30
2023-01-29T02:56:02.129Z,4.40
2023-01-29T02:58:43.027Z,4.63
2023-01-29T03:01:25.427Z,4.77
2023-01-29T03:04:01.235Z,4.60
2023-01-29T03:06:33.225Z,4.03
2023-01-29T03:09:06.122Z,4.10
2023-01-29T03:11:39.734Z,4.43
2023-01-29T03:14:14.740Z,4.17
2023-01-29T03:16:52.243Z,4.30
2023-01-29T03:19:24.062Z,4.77
2023-01-29T03:21:58.940Z,4.17
2023-01-29T03:25:03.065Z,3.70
2023-01-29T03:28:21.893Z,4.50
2023-01-29T03:31:17.570Z,4.10
2023-01-29T03:33:50.491Z,4.57
2023-01-29T03:36:27.618Z,4.33
2023-01-29T03:38:54.563Z,3.77
2023-01-29T03:41:33.257Z,4.37
2023-01-29T03:44:12.777Z,3.90
2023-01-29T03:46:48.741Z,4.03
2023-01-29T03:49:24.388Z,4.50
2023-01-29T03:52:09.883Z,4.33
2023-01-29T03:55:01.374Z,4.07
2023-01-29T03:57:40.554Z,4.20
2023-01-29T04:00:18.632Z,4.03
2023-01-29T04:02:55.161Z,4.07
2023-01-29T04:05:27.377Z,4.10
2023-01-29T04:08:05.552Z,3.70
2023-01-29T04:10:36.184Z,3.70
2023-01-29T04:13:08.902Z,4.23
2023-01-29T04:15:42.512Z,3.80
2023-01-29T04:18:10.063Z,4.83
2023-01-29T04:20:37.163Z,4.43
2023-01-29T04:23:07.712Z,4.30
2023-01-29T04:25:46.830Z,4.57
2023-01-29T04:28:21.143Z,4.43
2023-01-29T04:31:07.750Z,4.20
2023-01-29T04:34:07.945Z,4.90
2023-01-29T04:36:41.801Z,4.30
2023-01-29T04:39:24.463Z,4.53
2023-01-29T04:42:21.419Z,4.07
2023-01-29T04:45:17.144Z,4.93
2023-01-29T04:48:22.927Z,4.83
2023-01-29T04:51:24.542Z,4.70
2023-01-29T04:54:02.632Z,4.80
2023-01-29T04:56:37.974Z,4.87
2023-01-29T04:59:09.361Z,6.93
2023-01-29T05:01:37.876Z,4.87
2023-01-29T05:04:14.164Z,4.70
2023-01-29T05:06:42.428Z,4.13
2023-01-29T05:09:09.978Z,4.60
2023-01-29T05:11:37.772Z,4.80
2023-01-29T05:14:08.547Z,4.60
2023-01-29T05:16:45.551Z,4.43
2023-01-29T05:19:14.841Z,5.00
2023-01-29T05:21:44.368Z,4.77
2023-01-29T05:24:20.415Z,5.03
2023-01-29T05:27:08.156Z,5.33
2023-01-29T05:29:34.905Z,4.77
2023-01-29T05:32:01.924Z,4.23
2023-01-29T05:34:28.605Z,4.47
2023-01-29T05:36:55.277Z,4.37
2023-01-29T05:39:22.015Z,4.37
2023-01-29T05:41:48.685Z,4.53
2023-01-29T05:44:15.354Z,5.13
2023-01-29T05:46:42.083Z,4.97
2023-01-29T05:49:08.773Z,4.20
2023-01-29T05:51:35.737Z,4.97
2023-01-29T05:54:02.541Z,4.60
2023-01-29T05:56:29.224Z,4.53
2023-01-29T05:58:56.267Z,4.80
2023-01-29T06:01:25.481Z,5.23
2023-01-29T06:03:52.281Z,5.50
2023-01-29T06:06:19.066Z,5.33
2023-01-29T06:08:46.106Z,5.00
2023-01-29T06:11:14.148Z,5.10
2023-01-29T06:13:41.270Z,4.30
2023-01-29T06:16:09.603Z,4.40
2023-01-29T06:18:37.123Z,4.63
2023-01-29T06:21:05.807Z,5.00
2023-01-29T06:23:32.982Z,4.73
2023-01-29T06:26:12.391Z,5.00
2023-01-29T06:28:39.656Z,4.60
2023-01-29T06:31:24.365Z,5.90
2023-01-29T06:33:54.587Z,9.90
2023-01-29T06:36:21.251Z,6.07
2023-01-29T06:38:48.311Z,5.13
2023-01-29T06:41:18.200Z,4.60
2023-01-29T06:43:46.151Z,4.53
2023-01-29T06:46:13.083Z,4.83
2023-01-29T06:48:39.938Z,5.10
2023-01-29T06:51:09.042Z,4.67
2023-01-29T06:53:37.619Z,5.43
2023-01-29T06:56:05.185Z,5.27
2023-01-29T06:58:31.882Z,4.73
2023-01-29T07:01:10.232Z,5.20
2023-01-29T07:03:37.330Z,6.00
2023-01-29T07:06:05.230Z,5.20
2023-01-29T07:08:32.008Z,5.20
2023-01-29T07:11:00.653Z,5.20
2023-01-29T07:13:27.666Z,4.80
2023-01-29T07:15:54.669Z,6.10
2023-01-29T07:18:21.421Z,5.27
2023-01-29T07:20:48.095Z,4.97
2023-01-29T07:23:15.384Z,5.70
2023-01-29T07:25:42.138Z,5.23
2023-01-29T07:28:08.916Z,4.90
2023-01-29T07:30:36.112Z,5.20
2023-01-29T07:33:07.141Z,4.73
2023-01-29T07:35:39.352Z,5.23
2023-01-29T07:38:07.456Z,5.17
2023-01-29T07:40:34.456Z,4.90
2023-01-29T07:43:03.236Z,5.43
2023-01-29T07:45:31.110Z,5.30
2023-01-29T07:47:57.888Z,5.43
2023-01-29T07:50:26.333Z,4.90
2023-01-29T07:52:56.123Z,5.40
2023-01-29T07:55:23.191Z,5.50
2023-01-29T07:57:56.556Z,5.50
2023-01-29T08:00:23.495Z,6.90
2023-01-29T08:02:50.385Z,5.83
2023-01-29T08:05:17.169Z,5.80
2023-01-29T08:07:49.157Z,5.47
2023-01-29T08:10:18.537Z,6.03
2023-01-29T08:12:45.574Z,6.70
2023-01-29T08:15:12.298Z,8.30
2023-01-29T08:17:52.549Z,8.97
2023-01-29T08:20:24.348Z,7.90
2023-01-29T08:23:02.027Z,6.03
2023-01-29T08:25:29.628Z,6.47
2023-01-29T08:27:58.015Z,6.17
2023-01-29T08:30:30.329Z,6.13
2023-01-29T08:32:57.435Z,5.60
2023-01-29T08:35:24.877Z,6.40
2023-01-29T08:37:59.860Z,6.00
2023-01-29T08:40:28.699Z,6.37
2023-01-29T08:43:06.187Z,5.77
2023-01-29T08:45:35.763Z,6.40
2023-01-29T08:48:03.049Z,6.47
2023-01-29T08:50:34.828Z,6.20
2023-01-29T08:53:03.751Z,5.77
2023-01-29T08:55:30.482Z,6.37
2023-01-29T08:57:57.398Z,6.00
2023-01-29T09:00:24.636Z,6.30
2023-01-29T09:02:51.315Z,6.07
2023-01-29T09:05:18.402Z,6.17
2023-01-29T09:07:45.524Z,6.70
2023-01-29T09:10:12.457Z,7.87
2023-01-29T09:12:39.150Z,7.13
2023-01-29T09:15:06.271Z,7.17
2023-01-29T09:17:34.042Z,7.87
2023-01-29T09:20:00.768Z,7.90
2023-01-29T09:22:27.523Z,6.90
2023-01-29T09:24:54.254Z,8.00
2023-01-29T09:27:21.090Z,6.33
2023-01-29T09:29:47.734Z,7.13
2023-01-29T09:32:15.569Z,6.30
2023-01-29T09:34:43.580Z,6.93
2023-01-29T09:37:10.325Z,7.67
2023-01-29T09:39:37.022Z,6.57
2023-01-29T09:42:13.488Z,5.97
2023-01-29T09:45:05.128Z,5.37
2023-01-29T09:47:35.191Z,5.97
2023-01-29T09:50:19.253Z,5.27
2023-01-29T09:52:51.280Z,6.67
2023-01-29T09:55:23.585Z,6.43
2023-01-29T09:58:18.253Z,5.80
2023-01-29T10:00:51.691Z,6.73
2023-01-29T10:03:36.685Z,6.63
2023-01-29T10:06:22.420Z,6.60
2023-01-29T10:09:10.870Z,6.60
2023-01-29T10:11:58.007Z,7.40
2023-01-29T10:14:46.383Z,6.83
2023-01-29T10:17:24.922Z,7.40
2023-01-29T10:20:11.901Z,7.47
2023-01-29T10:23:01.959Z,7.10
2023-01-29T10:25:28.804Z,7.10
2023-01-29T10:27:58.798Z,6.43
2023-01-29T10:30:33.091Z,7.07
2023-01-29T10:33:04.023Z,5.90
2023-01-29T10:35:39.529Z,5.87
2023-01-29T10:38:21.392Z,5.80
2023-01-29T10:41:10.041Z,5.97
2023-01-29T10:43:42.738Z,7.07
2023-01-29T10:46:56.292Z,6.37
2023-01-29T10:49:39.187Z,6.43
2023-01-29T10:52:11.183Z,6.70
2023-01-29T10:54:49.478Z,6.77
2023-01-29T10:57:57.712Z,6.60
2023-01-29T11:00:33.095Z,6.80
2023-01-29T11:03:26.799Z,6.83
2023-01-29T11:06:20.326Z,6.57
2023-01-29T11:09:13.470Z,6.73
2023-01-29T11:12:09.586Z,6.40
2023-01-29T11:14:45.490Z,6.50
2023-01-29T11:17:20.589Z,5.83
2023-01-29T11:19:49.947Z,6.03
2023-01-29T11:22:20.011Z,6.13
2023-01-29T11:25:06.575Z,5.67
2023-01-29T11:27:35.484Z,6.20
2023-01-29T11:30:02.769Z,5.80
2023-01-29T11:32:34.002Z,7.47
2023-01-29T11:35:15.650Z,8.83
2023-01-29T11:37:44.881Z,6.43
2023-01-29T11:40:27.772Z,6.20
2023-01-29T11:42:54.579Z,6.70
2023-01-29T11:45:29.947Z,6.80
2023-01-29T11:47:57.496Z,7.60
2023-01-29T11:50:33.188Z,7.07
2023-01-29T11:53:01.590Z,6.93
2023-01-29T11:55:49.493Z,6.73
2023-01-29T11:58:27.371Z,6.80
2023-01-29T12:00:55.633Z,6.47
2023-01-29T12:03:33.273Z,6.33
2023-01-29T12:06:34.165Z,7.57
2023-01-29T12:09:03.865Z,7.30
2023-01-29T12:11:35.268Z,6.93
2023-01-29T12:14:05.565Z,7.00
2023-01-29T12:17:01.271Z,6.93
2023-01-29T12:19:40.142Z,7.60
2023-01-29T12:22:29.542Z,7.23
2023-01-29T12:25:16.960Z,6.90
2023-01-29T12:27:48.429Z,7.47
2023-01-29T12:30:54.755Z,10.70
2023-01-29T12:33:50.219Z,8.77
2023-01-29T12:36:38.601Z,7.40
2023-01-29T12:39:05.616Z,8.10
2023-01-29T12:41:41.427Z,7.13
2023-01-29T12:44:24.185Z,6.60
2023-01-29T12:46:54.815Z,6.97
2023-01-29T12:49:34.516Z,7.20
2023-01-29T12:52:13.704Z,7.50
2023-01-29T12:54:47.033Z,8.10
2023-01-29T12:57:46.428Z,7.73
2023-01-29T13:00:22.527Z,8.43
2023-01-29T13:03:08.480Z,7.23
2023-01-29T13:05:44.444Z,7.33
2023-01-29T13:08:26.267Z,7.67
2023-01-29T13:10:54.961Z,7.63
2023-01-29T13:13:33.059Z,8.20
2023-01-29T13:16:01.143Z,8.40
2023-01-29T13:18:47.789Z,8.20
2023-01-29T13:21:20.084Z,8.10
2023-01-29T13:24:00.476Z,7.60
2023-01-29T13:26:28.062Z,8.13
2023-01-29T13:28:55.254Z,8.00
2023-01-29T13:31:39.030Z,8.30
2023-01-29T13:34:21.270Z,7.63
2023-01-29T13:37:12.383Z,7.60
2023-01-29T13:39:46.066Z,8.30
2023-01-29T13:42:40.164Z,8.67
2023-01-29T13:45:08.955Z,8.93
2023-01-29T13:47:39.022Z,9.00
2023-01-29T13:50:20.019Z,8.00
2023-01-29T13:53:02.055Z,7.70
2023-01-29T13:55:33.556Z,8.60
2023-01-29T13:58:01.614Z,7.90
2023-01-29T14:00:34.048Z,8.43
2023-01-29T14:03:00.689Z,9.43
2023-01-29T14:05:30.525Z,8.90
2023-01-29T14:08:09.433Z,8.77
2023-01-29T14:10:37.791Z,9.03
2023-01-29T14:13:04.438Z,9.00
2023-01-29T14:15:35.895Z,8.80
2023-01-29T14:18:05.056Z,8.93
2023-01-29T14:20:58.487Z,9.20
2023-01-29T14:23:43.366Z,9.70
2023-01-29T14:26:19.001Z,9.13
2023-01-29T14:29:00.866Z,8.93
2023-01-29T14:31:41.279Z,9.93
2023-01-29T14:34:20.647Z,10.33
2023-01-29T14:36:55.390Z,10.27
2023-01-29T14:39:30.037Z,9.13
2023-01-29T14:41:58.210Z,9.43
2023-01-29T14:44:48.933Z,9.97
2023-01-29T14:47:38.852Z,9.90
2023-01-29T14:50:33.221Z,10.10
2023-01-29T14:53:23.943Z,9.63
2023-01-29T14:56:01.533Z,10.30
2023-01-29T14:58:50.327Z,9.27
2023-01-29T15:01:17.088Z,9.80
2023-01-29T15:03:49.915Z,10.27
2023-01-29T15:06:20.790Z,9.50
2023-01-29T15:09:04.102Z,10.40
2023-01-29T15:11:40.453Z,10.07
2023-01-29T15:14:18.872Z,9.17
2023-01-29T15:17:10.105Z,9.87
2023-01-29T15:19:44.542Z,11.20
2023-01-29T15:22:42.604Z,9.97
2023-01-29T15:25:15.886Z,11.17
2023-01-29T15:27:44.604Z,13.73
2023-01-29T15:30:17.740Z,14.37
2023-01-29T15:32:46.026Z,13.70
2023-01-29T15:35:53.744Z,11.40
2023-01-29T15:38:26.809Z,11.53
2023-01-29T15:41:02.216Z,11.47
2023-01-29T15:43:30.287Z,17.50
2023-01-29T15:46:06.830Z,11.17
2023-01-29T15:48:40.996Z,12.87
2023-01-29T15:51:16.286Z,12.67
2023-01-29T15:53:47.739Z,11.47
2023-01-29T15:56:18.385Z,10.57
2023-01-29T15:58:49.120Z,10.40
2023-01-29T16:01:16.377Z,10.50
2023-01-29T16:03:44.212Z,11.03
2023-01-29T16:06:11.661Z,10.33
2023-01-29T16:08:40.079Z,12.37
2023-01-29T16:11:08.361Z,13.33
2023-01-29T16:13:39.391Z,13.37
2023-01-29T16:16:35.291Z,14.80
2023-01-29T16:19:13.392Z,13.60
2023-01-29T16:21:44.298Z,13.80
2023-01-29T16:24:19.697Z,12.13
2023-01-29T16:26:48.843Z,13.00
2023-01-29T16:29:24.323Z,12.20
2023-01-29T16:31:54.652Z,12.57
2023-01-29T16:34:26.538Z,12.50
2023-01-29T16:36:54.727Z,12.10
2023-01-29T16:39:25.772Z,12.40
2023-01-29T16:42:17.341Z,14.50
2023-01-29T16:44:57.559Z,15.77
2023-01-29T16:47:33.043Z,18.23
2023-01-29T16:50:19.763Z,15.97
2023-01-29T16:53:00.931Z,16.37
2023-01-29T16:55:35.534Z,14.73
2023-01-29T16:58:11.724Z,13.63
2023-01-29T17:00:45.232Z,14.27
2023-01-29T17:03:13.136Z,12.77
2023-01-29T17:05:40.023Z,12.90
2023-01-29T17:08:07.739Z,12.43
2023-01-29T17:10:35.945Z,13.57
2023-01-29T17:13:09.823Z,13.53
2023-01-29T17:15:44.537Z,12.77
2023-01-29T17:18:29.611Z,11.20
2023-01-29T17:20:56.461Z,13.50
2023-01-29T17:23:23.941Z,13.80
2023-01-29T17:25:51.796Z,13.43
2023-01-29T17:28:18.860Z,13.03
2023-01-29T17:30:56.656Z,12.43
2023-01-29T17:33:32.222Z,12.43
2023-01-29T17:35:58.885Z,12.83
2023-01-29T17:38:26.869Z,13.13
2023-01-29T17:41:07.243Z,13.83
2023-01-29T17:43:35.012Z,12.67
2023-01-29T17:46:01.773Z,13.03
2023-01-29T17:48:30.079Z,14.43
2023-01-29T17:51:00.258Z,14.97
2023-01-29T17:53:43.265Z,13.87
2023-01-29T17:56:33.132Z,13.57
2023-01-29T17:59:00.944Z,14.73
2023-01-29T18:01:27.684Z,13.97
2023-01-29T18:03:54.432Z,16.13
2023-01-29T18:06:29.247Z,23.47
2023-01-29T18:08:58.769Z,33.17
2023-01-29T18:11:25.870Z,30.90
2023-01-29T18:13:52.720Z,29.17
2023-01-29T18:16:21.967Z,28.43
2023-01-29T18:18:49.561Z,24.97
2023-01-29T18:21:16.359Z,23.30
2023-01-29T18:23:43.083Z,19.27
2023-01-29T18:26:15.608Z,19.00
2023-01-29T18:28:43.709Z,16.47
2023-01-29T18:31:12.938Z,15.33
2023-01-29T18:33:40.364Z,16.97
2023-01-29T18:36:07.900Z,16.93
2023-01-29T18:38:34.617Z,17.73
2023-01-29T18:41:12.201Z,19.50
2023-01-29T18:43:40.412Z,20.17
2023-01-29T18:46:08.061Z,18.70
2023-01-29T18:48:35.478Z,16.03
2023-01-29T18:51:02.170Z,11.77
2023-01-29T18:53:29.077Z,12.83
2023-01-29T18:56:04.296Z,13.27
2023-01-29T18:58:36.111Z,13.73
2023-01-29T19:01:09.063Z,15.17
2023-01-29T19:03:36.411Z,13.27
2023-01-29T19:06:04.682Z,15.57
2023-01-29T19:08:32.191Z,14.37
2023-01-29T19:11:02.549Z,14.17
2023-01-29T19:13:30.998Z,14.87
2023-01-29T19:15:58.043Z,15.97
2023-01-29T19:18:27.766Z,15.93
2023-01-29T19:20:55.275Z,14.57
2023-01-29T19:23:22.247Z,13.63
2023-01-29T19:25:49.113Z,14.47
2023-01-29T19:28:15.956Z,13.87
2023-01-29T19:30:42.797Z,16.07
2023-01-29T19:33:10.245Z,16.43
2023-01-29T19:35:37.154Z,16.47
2023-01-29T19:38:04.350Z,17.23
2023-01-29T19:40:31.228Z,18.27
2023-01-29T19:42:58.438Z,18.00
2023-01-29T19:45:37.111Z,18.50
2023-01-29T19:48:14.761Z,17.63
2023-01-29T19:50:42.363Z,19.13
2023-01-29T19:53:09.783Z,19.50
2023-01-29T19:55:36.605Z,18.80
2023-01-29T19:58:05.281Z,17.17
2023-01-29T20:00:32.108Z,16.40
2023-01-29T20:02:58.801Z,18.43
2023-01-29T20:05:27.151Z,16.67
2023-01-29T20:07:53.907Z,17.47
2023-01-29T20:10:21.238Z,18.60
2023-01-29T20:12:48.074Z,19.50
2023-01-29T20:15:15.355Z,21.07
2023-01-29T20:17:42.172Z,19.33
2023-01-29T20:20:09.767Z,19.07
2023-01-29T20:22:36.615Z,19.23
2023-01-29T20:25:03.436Z,19.50
2023-01-29T20:27:30.131Z,17.80
2023-01-29T20:29:57.404Z,17.33
2023-01-29T20:32:24.281Z,18.17
2023-01-29T20:34:52.255Z,17.93
2023-01-29T20:37:21.868Z,18.53
2023-01-29T20:39:48.625Z,16.70
2023-01-29T20:42:15.315Z,18.13
2023-01-29T20:44:42.107Z,17.13
2023-01-29T20:47:08.934Z,17.93
2023-01-29T20:49:35.709Z,18.93
2023-01-29T20:52:02.482Z,18.17
2023-01-29T20:54:30.107Z,20.57
2023-01-29T20:56:57.057Z,17.83
2023-01-29T20:59:23.950Z,19.37
2023-01-29T21:01:50.701Z,18.57
2023-01-29T21:04:17.559Z,17.47
2023-01-29T21:06:44.277Z,18.63
2023-01-29T21:09:11.060Z,17.63
2023-01-29T21:11:37.779Z,18.23
2023-01-29T21:14:04.538Z,18.87
2023-01-29T21:16:31.361Z,19.27
2023-01-29T21:18:58.651Z,18.83
2023-01-29T21:21:26.620Z,18.27
2023-01-29T21:23:53.549Z,18.63
2023-01-29T21:26:20.545Z,17.77
2023-01-29T21:28:47.245Z,18.73
2023-01-29T21:31:16.382Z,19.87
2023-01-29T21:33:43.512Z,19.53
2023-01-29T21:36:11.152Z,19.60
2023-01-29T21:38:38.220Z,20.37
2023-01-29T21:41:08.729Z,19.40
2023-01-29T21:43:35.729Z,19.43
2023-01-29T21:46:06.238Z,20.90
2023-01-29T21:48:32.978Z,20.43
2023-01-29T21:50:59.732Z,21.07
2023-01-29T21:53:26.487Z,21.10
2023-01-29T21:55:58.377Z,20.37
2023-01-29T21:58:25.052Z,26.33
2023-01-29T22:00:51.749Z,27.63
2023-01-29T22:03:18.636Z,26.53
2023-01-29T22:05:45.294Z,25.80
2023-01-29T22:08:11.976Z,25.67
2023-01-29T22:10:39.059Z,25.30
2023-01-29T22:13:05.788Z,19.07
2023-01-29T22:15:32.543Z,17.13
2023-01-29T22:17:59.379Z,15.13
2023-01-29T22:20:30.197Z,16.67
2023-01-29T22:23:00.514Z,14.60
2023-01-29T22:25:27.682Z,15.67
2023-01-29T22:27:54.644Z,16.07
2023-01-29T22:30:23.281Z,16.53
2023-01-29T22:32:51.483Z,16.27
2023-01-29T22:35:18.234Z,16.27
2023-01-29T22:37:45.131Z,17.00
2023-01-29T22:40:12.901Z,17.33
2023-01-29T22:42:42.239Z,16.47
2023-01-29T22:45:09.467Z,16.20
2023-01-29T22:47:36.175Z,19.73
2023-01-29T22:50:06.784Z,18.10
2023-01-29T22:55:11.599Z,18.83
2023-01-29T22:57:39.113Z,17.67
2023-01-29T23:00:09.975Z,17.23
2023-01-29T23:02:36.926Z,16.53
2023-01-29T23:05:04.417Z,18.50
2023-01-29T23:07:31.234Z,16.67
2023-01-29T23:09:57.933Z,18.03
2023-01-29T23:12:24.691Z,18.63
2023-01-29T23:14:51.360Z,17.37
2023-01-29T23:17:18.090Z,17.47
2023-01-29T23:19:44.739Z,18.10
2023-01-29T23:22:11.503Z,17.80
2023-01-29T23:24:38.213Z,17.33
2023-01-29T23:27:16.746Z,16.63
2023-01-29T23:29:45.230Z,17.37
2023-01-29T23:32:13.876Z,18.33
2023-01-29T23:34:40.633Z,20.23
2023-01-29T23:37:08.130Z,17.30
2023-01-29T23:39:35.060Z,17.10
2023-01-29T23:42:01.957Z,16.53
2023-01-29T23:44:29.124Z,16.87
2023-01-29T23:46:55.952Z,17.10
2023-01-29T23:49:22.907Z,16.13
2023-01-29T23:51:50.560Z,17.03
2023-01-29T23:54:17.811Z,18.43
2023-01-29T23:56:44.870Z,17.10
2023-01-29T23:59:11.566Z,16.30
